createdAt,value
2023-02-04T00:01:08.979Z,101624.13
2023-02-04T00:03:35.599Z,101636.44
2023-02-04T00:06:02.267Z,101640.88
2023-02-04T00:08:29.043Z,101658.69
2023-02-04T00:10:55.649Z,101663.09
2023-02-04T00:13:22.256Z,101668.66
2023-02-04T00:15:48.882Z,101684.00
2023-02-04T00:18:15.519Z,101694.78
2023-02-04T00:20:42.102Z,101704.91
2023-02-04T00:23:08.703Z,101713.00
2023-02-04T00:25:35.286Z,101716.84
2023-02-04T00:28:01.974Z,101738.59
2023-02-04T00:30:28.745Z,101737.91
2023-02-04T00:32:56.622Z,101760.50
2023-02-04T00:35:23.978Z,101769.63
2023-02-04T00:37:51.033Z,101771.47
2023-02-04T00:40:17.864Z,101779.56
2023-02-04T00:42:44.457Z,101795.59
2023-02-04T00:45:12.619Z,101804.16
2023-02-04T00:47:39.343Z,101813.28
2023-02-04T00:50:06.442Z,101825.44
2023-02-04T00:52:33.160Z,101842.16
2023-02-04T00:54:59.770Z,101848.41
2023-02-04T00:57:26.373Z,101851.09
2023-02-04T00:59:52.976Z,101858.19
2023-02-04T01:02:19.694Z,101883.47
2023-02-04T01:04:46.359Z,101895.13
2023-02-04T01:07:13.092Z,101886.88
2023-02-04T01:09:39.660Z,101914.84
2023-02-04T01:12:06.325Z,101911.03
2023-02-04T01:14:32.882Z,101922.66
2023-02-04T01:16:59.469Z,101929.91
2023-02-04T01:19:26.086Z,101942.25
2023-02-04T01:21:52.704Z,101932.91
2023-02-04T01:24:19.281Z,101955.34
2023-02-04T01:26:45.863Z,101988.56
2023-02-04T01:29:12.449Z,101990.28
2023-02-04T01:31:39.073Z,101993.97
2023-02-04T01:34:05.706Z,101996.66
2023-02-04T01:36:32.304Z,102004.22
2023-02-04T01:39:00.961Z,102014.72
2023-02-04T01:41:28.301Z,102034.78
2023-02-04T01:43:55.092Z,102040.84
2023-02-04T01:46:21.836Z,102051.66
2023-02-04T01:48:48.549Z,102065.84
2023-02-04T01:51:21.921Z,102082.03
2023-02-04T01:53:48.516Z,102087.44
2023-02-04T01:56:20.999Z,102093.56
2023-02-04T01:58:48.606Z,102104.34
2023-02-04T02:01:41.787Z,102099.38
2023-02-04T02:04:14.258Z,102113.72
2023-02-04T02:06:45.803Z,102123.69
2023-02-04T02:09:12.750Z,102141.72
2023-02-04T02:11:39.519Z,102150.81
2023-02-04T02:14:06.333Z,102151.66
2023-02-04T02:16:33.241Z,102166.47
2023-02-04T02:19:00.103Z,102165.88
2023-02-04T02:22:03.590Z,102179.38
2023-02-04T02:24:32.842Z,102184.66
2023-02-04T02:27:07.317Z,102180.13
2023-02-04T02:29:34.751Z,102188.78
2023-02-04T02:32:01.633Z,102193.19
2023-02-04T02:34:30.317Z,102209.94
2023-02-04T02:36:59.356Z,102220.75
2023-02-04T02:39:26.743Z,102229.69
2023-02-04T02:41:54.841Z,102231.09
2023-02-04T02:44:21.440Z,102244.72
2023-02-04T02:46:48.652Z,102249.69
2023-02-04T02:49:19.650Z,102258.63
2023-02-04T02:51:46.586Z,102262.31
2023-02-04T02:54:29.510Z,102262.16
2023-02-04T02:56:57.684Z,102279.38
2023-02-04T02:59:25.376Z,102282.38
2023-02-04T03:01:58.000Z,102293.00
2023-02-04T03:04:27.224Z,102298.25
2023-02-04T03:06:54.727Z,102311.06
2023-02-04T03:09:21.333Z,102316.75
2023-02-04T03:11:48.677Z,102326.53
2023-02-04T03:14:15.672Z,102342.88
2023-02-04T03:16:44.381Z,102343.75
2023-02-04T03:19:13.793Z,102345.59
2023-02-04T03:21:41.604Z,102351.97
2023-02-04T03:24:08.385Z,102354.78
2023-02-04T03:26:35.236Z,102370.28
2023-02-04T03:29:02.315Z,102372.97
2023-02-04T03:31:29.032Z,102374.13
2023-02-04T03:33:55.666Z,102385.78
2023-02-04T03:36:22.488Z,102402.09
2023-02-04T03:38:49.036Z,102407.06
2023-02-04T03:41:15.626Z,102414.47
2023-02-04T03:43:42.216Z,102415.91
2023-02-04T03:46:08.882Z,102424.84
2023-02-04T03:48:35.481Z,102432.22
2023-02-04T03:51:02.096Z,102436.03
2023-02-04T03:53:28.741Z,102439.34
2023-02-04T03:55:55.317Z,102451.09
2023-02-04T03:58:22.268Z,102454.53
2023-02-04T04:00:49.184Z,102462.88
2023-02-04T04:03:16.027Z,102477.13
2023-02-04T04:05:42.652Z,102486.78
2023-02-04T04:08:09.265Z,102502.13
2023-02-04T04:10:35.860Z,102512.91
2023-02-04T04:13:02.437Z,102511.31
2023-02-04T04:15:29.014Z,102526.25
2023-02-04T04:17:55.597Z,102531.81
2023-02-04T04:20:25.475Z,102543.72
2023-02-04T04:22:52.619Z,102547.16
2023-02-04T04:25:19.727Z,102539.31
2023-02-04T04:27:46.553Z,102548.16
2023-02-04T04:30:13.164Z,102562.75
2023-02-04T04:32:39.760Z,102561.75
2023-02-04T04:35:06.639Z,102570.69
2023-02-04T04:37:35.155Z,102575.38
2023-02-04T04:40:02.786Z,102579.94
2023-02-04T04:42:29.564Z,102582.63
2023-02-04T04:44:56.238Z,102588.03
2023-02-04T04:47:22.978Z,102597.13
2023-02-04T04:49:49.553Z,102604.06
2023-02-04T04:52:16.109Z,102607.78
2023-02-04T04:54:42.727Z,102619.41
2023-02-04T04:57:09.292Z,102625.94
2023-02-04T04:59:35.881Z,102627.66
2023-02-04T05:02:02.468Z,102642.28
2023-02-04T05:04:29.050Z,102648.38
2023-02-04T05:06:55.688Z,102652.78
2023-02-04T05:09:22.398Z,102658.34
2023-02-04T05:11:48.971Z,102668.28
2023-02-04T05:14:15.568Z,102666.44
2023-02-04T05:16:42.243Z,102676.50
2023-02-04T05:19:08.965Z,102687.16
2023-02-04T05:21:35.541Z,102684.75
2023-02-04T05:24:02.192Z,102683.75
2023-02-04T05:26:31.091Z,102691.72
2023-02-04T05:29:00.471Z,102705.06
2023-02-04T05:31:27.967Z,102704.22
2023-02-04T05:33:54.871Z,102715.72
2023-02-04T05:36:21.889Z,102721.25
2023-02-04T05:38:48.579Z,102719.56
2023-02-04T05:41:15.650Z,102728.34
2023-02-04T05:43:43.123Z,102734.03
2023-02-04T05:46:09.974Z,102733.03
2023-02-04T05:48:36.767Z,102751.22
2023-02-04T05:51:03.468Z,102760.16
2023-02-04T05:53:30.032Z,102763.59
2023-02-04T05:55:56.621Z,102773.53
2023-02-04T05:58:23.447Z,102770.97
2023-02-04T06:00:50.024Z,102778.06
2023-02-04T06:03:19.522Z,102783.59
2023-02-04T06:05:46.259Z,102780.06
2023-02-04T06:08:15.784Z,102785.59
2023-02-04T06:10:42.428Z,102791.84
2023-02-04T06:13:09.025Z,102797.38
2023-02-04T06:15:35.629Z,102798.47
2023-02-04T06:18:02.246Z,102810.72
2023-02-04T06:20:28.975Z,102807.31
2023-02-04T06:22:55.590Z,102812.44
2023-02-04T06:25:22.490Z,102813.69
2023-02-04T06:27:49.564Z,102821.66
2023-02-04T06:30:16.927Z,102820.06
2023-02-04T06:32:43.593Z,102836.25
2023-02-04T06:35:10.857Z,102840.41
2023-02-04T06:37:37.422Z,102853.06
2023-02-04T06:40:05.194Z,102849.38
2023-02-04T06:42:31.836Z,102858.59
2023-02-04T06:44:58.410Z,102856.88
2023-02-04T06:47:25.028Z,102871.47
2023-02-04T06:49:51.694Z,102859.31
2023-02-04T06:52:18.280Z,102861.00
2023-02-04T06:54:44.862Z,102863.44
2023-02-04T06:57:12.301Z,102868.25
2023-02-04T06:59:40.539Z,102875.94
2023-02-04T07:02:08.005Z,102879.50
2023-02-04T07:04:35.401Z,102889.44
2023-02-04T07:07:02.116Z,102892.84
2023-02-04T07:09:28.915Z,102892.84
2023-02-04T07:11:55.505Z,102890.91
2023-02-04T07:14:22.145Z,102896.75
2023-02-04T07:16:48.735Z,102895.78
2023-02-04T07:19:15.335Z,102888.59
2023-02-04T07:21:41.936Z,102896.69
2023-02-04T07:24:08.509Z,102899.63
2023-02-04T07:26:35.440Z,102906.03
2023-02-04T07:29:02.009Z,102904.19
2023-02-04T07:31:28.693Z,102920.53
2023-02-04T07:33:55.384Z,102910.59
2023-02-04T07:36:22.130Z,102921.53
2023-02-04T07:38:48.779Z,102921.78
2023-02-04T07:41:15.437Z,102939.72
2023-02-04T07:43:42.261Z,102931.59
2023-02-04T07:46:08.936Z,102929.91
2023-02-04T07:48:35.562Z,102934.44
2023-02-04T07:51:02.408Z,102938.59
2023-02-04T07:53:29.010Z,102937.09
2023-02-04T07:55:55.569Z,102944.47
2023-02-04T07:58:23.125Z,102947.88
2023-02-04T08:00:49.694Z,102949.59
2023-02-04T08:03:16.294Z,102960.84
2023-02-04T08:05:42.921Z,102965.47
2023-02-04T08:08:09.470Z,102975.28
2023-02-04T08:10:36.049Z,102977.59
2023-02-04T08:13:02.640Z,102988.50
2023-02-04T08:15:29.256Z,102992.84
2023-02-04T08:17:55.925Z,102993.13
2023-02-04T08:20:22.538Z,102997.91
2023-02-04T08:22:49.186Z,102998.31
2023-02-04T08:25:16.010Z,102999.78
2023-02-04T08:27:42.923Z,103005.66
2023-02-04T08:30:10.764Z,103007.09
2023-02-04T08:32:39.276Z,103007.25
2023-02-04T08:35:07.443Z,103010.09
2023-02-04T08:37:34.620Z,103025.22
2023-02-04T08:40:01.202Z,103025.59
2023-02-04T08:42:27.943Z,103024.56
2023-02-04T08:44:54.536Z,103027.25
2023-02-04T08:47:21.148Z,103030.03
2023-02-04T08:49:47.720Z,103029.91
2023-02-04T08:52:14.307Z,103034.44
2023-02-04T08:54:40.905Z,103041.53
2023-02-04T08:57:07.488Z,103030.75
2023-02-04T08:59:34.101Z,103042.31
2023-02-04T09:02:00.823Z,103040.66
2023-02-04T09:04:28.509Z,103046.84
2023-02-04T09:06:55.217Z,103053.69
2023-02-04T09:09:23.324Z,103057.97
2023-02-04T09:11:50.527Z,103065.63
2023-02-04T09:14:17.221Z,103066.88
2023-02-04T09:16:43.945Z,103069.19
2023-02-04T09:19:12.794Z,103075.13
2023-02-04T09:21:39.386Z,103083.66
2023-02-04T09:24:05.993Z,103092.25
2023-02-04T09:26:32.595Z,103099.41
2023-02-04T09:28:59.312Z,103094.78
2023-02-04T09:31:26.060Z,103097.75
2023-02-04T09:33:52.719Z,103101.94
2023-02-04T09:36:19.371Z,103107.41
2023-02-04T09:38:45.929Z,103112.06
2023-02-04T09:41:13.524Z,103106.88
2023-02-04T09:43:44.169Z,103109.06
2023-02-04T09:46:21.607Z,103119.59
2023-02-04T09:48:49.407Z,103121.16
2023-02-04T09:51:23.616Z,103126.66
2023-02-04T09:53:53.901Z,103129.44
2023-02-04T09:56:20.747Z,103120.97
2023-02-04T09:58:47.492Z,103125.59
2023-02-04T10:01:17.139Z,103127.72
2023-02-04T10:03:47.125Z,103119.56
2023-02-04T10:06:19.243Z,103128.13
2023-02-04T10:08:48.517Z,103123.59
2023-02-04T10:11:18.040Z,103127.25
2023-02-04T10:13:53.807Z,103134.22
2023-02-04T10:16:29.918Z,103128.91
2023-02-04T10:19:01.939Z,103134.00
2023-02-04T10:21:32.231Z,103138.34
2023-02-04T10:24:02.646Z,103128.66
2023-02-04T10:26:31.939Z,103139.06
2023-02-04T10:29:04.359Z,103137.06
2023-02-04T10:31:39.720Z,103141.94
2023-02-04T10:34:13.787Z,103145.97
2023-02-04T10:36:42.931Z,103148.44
2023-02-04T10:39:19.644Z,103157.78
2023-02-04T10:41:51.663Z,103150.19
2023-02-04T10:44:39.826Z,103150.72
2023-02-04T10:47:18.030Z,103157.56
2023-02-04T10:49:54.891Z,103154.84
2023-02-04T10:52:24.192Z,103159.63
2023-02-04T10:54:51.051Z,103164.34
2023-02-04T10:57:27.470Z,103165.59
2023-02-04T10:59:57.907Z,103159.56
2023-02-04T11:02:37.027Z,103156.47
2023-02-04T11:05:05.075Z,103161.91
2023-02-04T11:07:32.083Z,103165.63
2023-02-04T11:09:58.751Z,103169.66
2023-02-04T11:13:05.851Z,103169.91
2023-02-04T11:15:51.070Z,103161.81
2023-02-04T11:18:20.544Z,103169.31
2023-02-04T11:20:49.171Z,103167.72
2023-02-04T11:23:16.957Z,103182.94
2023-02-04T11:25:43.866Z,103183.44
2023-02-04T11:28:15.801Z,103171.41
2023-02-04T11:30:42.726Z,103162.44
2023-02-04T11:33:25.125Z,103170.22
2023-02-04T11:36:04.554Z,103166.06
2023-02-04T11:38:32.435Z,103173.69
2023-02-04T11:41:00.462Z,103170.41
2023-02-04T11:43:28.102Z,103179.25
2023-02-04T11:46:10.207Z,103174.69
2023-02-04T11:48:37.056Z,103177.66
2023-02-04T11:51:11.611Z,103184.53
2023-02-04T11:53:38.184Z,103191.28
2023-02-04T11:56:05.007Z,103192.06
2023-02-04T11:58:32.448Z,103198.31
2023-02-04T12:00:59.755Z,103193.22
2023-02-04T12:03:31.137Z,103193.03
2023-02-04T12:05:59.138Z,103193.44
2023-02-04T12:08:36.798Z,103198.69
2023-02-04T12:11:15.633Z,103205.69
2023-02-04T12:13:54.171Z,103203.19
2023-02-04T12:16:20.987Z,103206.88
2023-02-04T12:18:47.836Z,103203.94
2023-02-04T12:21:14.639Z,103201.50
2023-02-04T12:23:44.480Z,103202.22
2023-02-04T12:26:11.845Z,103208.84
2023-02-04T12:28:38.454Z,103200.75
2023-02-04T12:31:05.134Z,103202.72
2023-02-04T12:33:31.849Z,103209.53
2023-02-04T12:35:58.425Z,103208.50
2023-02-04T12:38:25.125Z,103208.38
2023-02-04T12:40:51.753Z,103217.22
2023-02-04T12:43:18.369Z,103216.34
2023-02-04T12:45:46.439Z,103220.88
2023-02-04T12:48:14.117Z,103211.41
2023-02-04T12:50:41.048Z,103222.34
2023-02-04T12:53:09.188Z,103227.16
2023-02-04T12:55:36.382Z,103232.78
2023-02-04T12:58:03.202Z,103226.16
2023-02-04T13:00:30.368Z,103221.34
2023-02-04T13:02:59.168Z,103225.53
2023-02-04T13:05:26.653Z,103222.56
2023-02-04T13:07:53.239Z,103224.31
2023-02-04T13:10:21.716Z,103235.84
2023-02-04T13:12:48.397Z,103235.13
2023-02-04T13:15:15.024Z,103234.63
2023-02-04T13:17:41.625Z,103244.22
2023-02-04T13:20:09.100Z,103238.94
2023-02-04T13:22:35.766Z,103242.13
2023-02-04T13:25:04.097Z,103240.69
2023-02-04T13:27:31.900Z,103245.72
2023-02-04T13:29:58.639Z,103242.28
2023-02-04T13:32:25.338Z,103242.41
2023-02-04T13:34:51.930Z,103244.47
2023-02-04T13:37:18.541Z,103249.16
2023-02-04T13:39:45.212Z,103243.16
2023-02-04T13:42:11.830Z,103253.19
2023-02-04T13:44:38.421Z,103251.22
2023-02-04T13:47:05.081Z,103250.34
2023-02-04T13:49:31.682Z,103254.69
2023-02-04T13:51:58.294Z,103246.78
2023-02-04T13:54:25.386Z,103253.84
2023-02-04T13:56:52.131Z,103263.59
2023-02-04T13:59:20.890Z,103254.59
2023-02-04T14:01:47.702Z,103257.41
2023-02-04T14:04:14.415Z,103260.84
2023-02-04T14:06:43.704Z,103257.41
2023-02-04T14:09:12.185Z,103259.91
2023-02-04T14:11:39.586Z,103262.06
2023-02-04T14:14:06.761Z,103261.28
2023-02-04T14:16:33.466Z,103263.22
2023-02-04T14:19:00.736Z,103269.91
2023-02-04T14:21:27.475Z,103264.84
2023-02-04T14:23:54.084Z,103271.00
2023-02-04T14:26:20.816Z,103259.78
2023-02-04T14:28:47.405Z,103270.25
2023-02-04T14:31:14.006Z,103278.25
2023-02-04T14:33:40.584Z,103281.78
2023-02-04T14:36:07.488Z,103285.75
2023-02-04T14:38:34.298Z,103290.91
2023-02-04T14:41:01.238Z,103297.63
2023-02-04T14:43:27.938Z,103300.72
2023-02-04T14:45:54.615Z,103298.88
2023-02-04T14:48:21.311Z,103300.84
2023-02-04T14:50:47.993Z,103303.03
2023-02-04T14:53:14.588Z,103305.38
2023-02-04T14:55:41.153Z,103301.97
2023-02-04T14:58:07.856Z,103299.00
2023-02-04T15:00:34.853Z,103307.69
2023-02-04T15:03:01.660Z,103310.53
2023-02-04T15:05:28.300Z,103304.13
2023-02-04T15:07:54.971Z,103304.66
2023-02-04T15:10:22.949Z,103311.03
2023-02-04T15:12:49.702Z,103305.25
2023-02-04T15:15:16.570Z,103315.19
2023-02-04T15:17:43.158Z,103316.91
2023-02-04T15:20:11.313Z,103305.72
2023-02-04T15:22:38.375Z,103311.78
2023-02-04T15:25:06.109Z,103309.41
2023-02-04T15:27:32.714Z,103315.31
2023-02-04T15:29:59.326Z,103312.38
2023-02-04T15:32:26.364Z,103316.66
2023-02-04T15:34:53.123Z,103308.09
2023-02-04T15:37:19.731Z,103309.41
2023-02-04T15:39:46.435Z,103319.34
2023-02-04T15:42:13.182Z,103319.34
2023-02-04T15:44:39.944Z,103314.09
2023-02-04T15:47:06.662Z,103314.22
2023-02-04T15:49:33.961Z,103320.59
2023-02-04T15:52:02.119Z,103313.47
2023-02-04T15:54:28.829Z,103312.50
2023-02-04T15:56:55.589Z,103318.13
2023-02-04T15:59:22.188Z,103320.84
2023-02-04T16:01:49.689Z,103322.03
2023-02-04T16:04:16.532Z,103332.63
2023-02-04T16:06:50.274Z,103328.94
2023-02-04T16:09:20.228Z,103325.72
2023-02-04T16:11:46.819Z,103327.56
2023-02-04T16:14:13.419Z,103332.84
2023-02-04T16:16:40.033Z,103340.22
2023-02-04T16:19:06.704Z,103340.72
2023-02-04T16:21:33.278Z,103332.84
2023-02-04T16:23:59.860Z,103353.59
2023-02-04T16:26:26.524Z,103350.03
2023-02-04T16:28:54.880Z,103342.91
2023-02-04T16:31:21.596Z,103339.22
2023-02-04T16:33:48.256Z,103349.88
2023-02-04T16:36:15.448Z,103356.13
2023-02-04T16:38:43.576Z,103365.59
2023-02-04T16:41:11.102Z,103364.47
2023-02-04T16:43:37.738Z,103368.66
2023-02-04T16:46:04.623Z,103374.38
2023-02-04T16:48:31.457Z,103378.06
2023-02-04T16:50:58.036Z,103387.75
2023-02-04T16:53:24.861Z,103381.38
2023-02-04T16:55:51.574Z,103388.41
2023-02-04T16:58:19.442Z,103392.81
2023-02-04T17:00:46.298Z,103391.72
2023-02-04T17:03:13.502Z,103389.88
2023-02-04T17:05:41.014Z,103386.56
2023-02-04T17:08:08.625Z,103389.88
2023-02-04T17:10:54.345Z,103393.69
2023-02-04T17:13:21.103Z,103393.69
2023-02-04T17:15:47.688Z,103398.22
2023-02-04T17:18:14.393Z,103402.97
2023-02-04T17:20:41.053Z,103400.06
2023-02-04T17:23:08.122Z,103401.78
2023-02-04T17:25:35.191Z,103417.59
2023-02-04T17:28:02.236Z,103418.31
2023-02-04T17:30:29.311Z,103423.59
2023-02-04T17:32:55.934Z,103422.03
2023-02-04T17:35:22.741Z,103419.81
2023-02-04T17:37:49.412Z,103419.81
2023-02-04T17:40:16.086Z,103420.66
2023-02-04T17:42:42.742Z,103418.59
2023-02-04T17:45:10.781Z,103420.91
2023-02-04T17:47:38.587Z,103426.09
2023-02-04T17:50:07.962Z,103422.19
2023-02-04T17:52:34.733Z,103428.09
2023-02-04T17:55:22.318Z,103425.13
2023-02-04T17:57:49.905Z,103434.03
2023-02-04T18:00:20.273Z,103443.13
2023-02-04T18:02:49.072Z,103435.13
2023-02-04T18:05:19.410Z,103437.44
2023-02-04T18:08:06.067Z,103437.44
2023-02-04T18:10:36.540Z,103438.41
2023-02-04T18:13:22.595Z,103453.19
2023-02-04T18:15:52.454Z,103448.34
2023-02-04T18:18:37.135Z,103448.00
2023-02-04T18:21:23.913Z,103448.09
2023-02-04T18:24:21.471Z,103455.00
2023-02-04T18:26:50.692Z,103455.75
2023-02-04T18:29:37.522Z,103454.78
2023-02-04T18:32:13.148Z,103454.78
2023-02-04T18:34:43.869Z,103455.63
2023-02-04T18:37:29.258Z,103456.72
2023-02-04T18:40:11.090Z,103458.34
2023-02-04T18:42:40.956Z,103461.66
2023-02-04T18:45:13.872Z,103459.94
2023-02-04T18:47:41.241Z,103471.59
2023-02-04T18:50:35.233Z,103470.72
2023-02-04T18:53:07.782Z,103468.16
2023-02-04T18:55:37.059Z,103472.44
2023-02-04T18:58:27.717Z,103472.69
2023-02-04T19:01:25.385Z,103472.56
2023-02-04T19:04:00.921Z,103469.13
2023-02-04T19:06:28.904Z,103473.13
2023-02-04T19:09:18.053Z,103480.38
2023-02-04T19:11:51.504Z,103474.22
2023-02-04T19:14:27.140Z,103479.00
2023-02-04T19:17:01.430Z,103481.59
2023-02-04T19:19:40.177Z,103491.53
2023-02-04T19:22:19.910Z,103487.84
2023-02-04T19:24:47.397Z,103489.94
2023-02-04T19:27:34.631Z,103487.22
2023-02-04T19:30:22.207Z,103493.38
2023-02-04T19:32:55.583Z,103490.44
2023-02-04T19:35:24.743Z,103489.56
2023-02-04T19:38:02.503Z,103494.72
2023-02-04T19:40:38.033Z,103498.09
2023-02-04T19:43:22.188Z,103499.19
2023-02-04T19:45:52.836Z,103498.41
2023-02-04T19:48:45.920Z,103502.09
2023-02-04T19:51:29.234Z,103505.44
2023-02-04T19:54:02.383Z,103509.00
2023-02-04T19:56:46.894Z,103508.22
2023-02-04T19:59:27.494Z,103509.97
2023-02-04T20:02:20.149Z,103512.69
2023-02-04T20:04:52.531Z,103514.28
2023-02-04T20:07:20.612Z,103514.38
2023-02-04T20:09:47.453Z,103516.97
2023-02-04T20:12:16.215Z,103516.97
2023-02-04T20:14:49.268Z,103518.69
2023-02-04T20:17:54.447Z,103510.59
2023-02-04T20:20:26.142Z,103514.59
2023-02-04T20:22:58.499Z,103513.53
2023-02-04T20:25:37.088Z,103516.31
2023-02-04T20:28:21.449Z,103517.41
2023-02-04T20:30:51.935Z,103519.38
2023-02-04T20:33:34.775Z,103519.50
2023-02-04T20:36:26.043Z,103527.69
2023-02-04T20:39:08.701Z,103528.56
2023-02-04T20:41:37.698Z,103529.75
2023-02-04T20:44:17.258Z,103532.25
2023-02-04T20:46:43.882Z,103537.06
2023-02-04T20:49:25.045Z,103547.69
2023-02-04T20:51:59.222Z,103546.03
2023-02-04T20:54:29.500Z,103546.03
2023-02-04T20:57:15.496Z,103546.81
2023-02-04T20:59:42.846Z,103549.53
2023-02-04T21:02:21.008Z,103545.75
2023-02-04T21:04:53.578Z,103556.72
2023-02-04T21:07:22.213Z,103551.13
2023-02-04T21:09:49.375Z,103551.13
2023-02-04T21:12:16.128Z,103561.94
2023-02-04T21:14:42.917Z,103558.47
2023-02-04T21:17:09.552Z,103572.72
2023-02-04T21:19:36.139Z,103569.16
2023-02-04T21:22:02.733Z,103571.75
2023-02-04T21:24:31.822Z,103583.28
2023-02-04T21:26:58.636Z,103576.16
2023-02-04T21:29:26.112Z,103578.75
2023-02-04T21:31:54.435Z,103568.19
2023-02-04T21:34:21.594Z,103565.38
2023-02-04T21:36:48.344Z,103559.97
2023-02-04T21:39:15.019Z,103560.94
2023-02-04T21:41:41.597Z,103566.22
2023-02-04T21:44:08.213Z,103562.66
2023-02-04T21:46:34.953Z,103566.47
2023-02-04T21:49:01.639Z,103571.50
2023-02-04T21:51:28.350Z,103565.50
2023-02-04T21:53:54.995Z,103571.84
2023-02-04T21:56:21.562Z,103577.47
2023-02-04T21:58:48.129Z,103573.47
2023-02-04T22:01:14.694Z,103578.97
2023-02-04T22:03:41.360Z,103582.78
2023-02-04T22:06:08.309Z,103579.38
2023-02-04T22:08:34.900Z,103583.91
2023-02-04T22:11:01.533Z,103583.72
2023-02-04T22:13:46.671Z,103584.63
2023-02-04T22:16:13.403Z,103585.63
2023-02-04T22:18:40.018Z,103573.97
2023-02-04T22:21:06.582Z,103579.28
2023-02-04T22:23:33.198Z,103585.88
2023-02-04T22:25:59.792Z,103593.84
2023-02-04T22:28:26.366Z,103592.88
2023-02-04T22:30:54.292Z,103587.47
2023-02-04T22:33:21.081Z,103579.50
2023-02-04T22:35:48.497Z,103578.75
2023-02-04T22:38:15.137Z,103574.09
2023-02-04T22:40:41.738Z,103564.06
2023-02-04T22:43:08.421Z,103569.56
2023-02-04T22:45:35.300Z,103570.44
2023-02-04T22:48:02.101Z,103565.81
2023-02-04T22:50:28.683Z,103569.28
2023-02-04T22:52:55.478Z,103567.31
2023-02-04T22:55:22.122Z,103563.88
2023-02-04T22:57:48.732Z,103570.13
2023-02-04T23:00:16.247Z,103574.69
2023-02-04T23:02:42.837Z,103578.13
2023-02-04T23:05:09.437Z,103590.88
2023-02-04T23:07:36.800Z,103580.16
2023-02-04T23:10:03.924Z,103580.94
2023-02-04T23:12:30.509Z,103581.00
2023-02-04T23:14:57.118Z,103592.72
2023-02-04T23:17:23.779Z,103587.47
2023-02-04T23:19:50.351Z,103584.69
2023-02-04T23:22:17.242Z,103583.72
2023-02-04T23:24:44.171Z,103586.41
2023-02-04T23:27:11.607Z,103583.72
2023-02-04T23:29:39.763Z,103586.50
2023-02-04T23:32:06.441Z,103587.41
2023-02-04T23:34:33.068Z,103582.84
2023-02-04T23:36:59.779Z,103582.94
2023-02-04T23:39:26.525Z,103577.66
2023-02-04T23:41:53.165Z,103570.44
2023-02-04T23:44:19.816Z,103568.69
2023-02-04T23:46:46.458Z,103567.72
2023-02-04T23:49:13.150Z,103560.22
2023-02-04T23:51:39.973Z,103562.91
2023-02-04T23:54:07.212Z,103563.84
2023-02-04T23:56:33.816Z,103561.94
2023-02-04T23:59:01.237Z,103555.25
